Hlavní strana
METAR-TAF:

METAR-TAF

Letiště :

Schwäbisch Hall, Německo

zeměpisná šířka: 49-07-06N, zeměpisná délka: 9-47-02E, výška: 398 m

Aktuální stav počasí

Zpráva byla vytvořena před 1 hodinou a 26 minutami, v 18:50 UTC
Západní vítr 8 kt
Teplota 1°C
Vlhkost vzduchu 100%
Tlak 1022 hPa
Viditelnost 10 km a více
Oblačno až skoro zataženo ve výšce 700 ft
Oblačno až skoro zataženo ve výšce 3800 ft

METAR: EDTY 111850Z 26008KT 9999 BKN007 BKN038 01/01 Q1022

Čas: 21:16 (20:16 UTC)

Předpověď počasí

Zpráva byla vytvořena před 3 hodinami a 16 minutami, v 17:00 UTC
Předpověď platná od 11 v 18 UTC do 12 v 03 UTC
Západní vítr 5 kt
Viditelnost 10 km a více
Oblačno až skoro zataženo ve výšce 800 ft
Zataženo ve výšce 1500 ft
Dočasný
od 11 v 18 UTC do 12 v 03 UTC
Polojasno ve výšce 800 ft
Oblačno až skoro zataženo ve výšce 2000 ft

TAF: EDTY 111700Z 1118/1203 26005KT 9999 BKN008 OVC015 TEMPO 1118/1203 SCT008 BKN020

Stav a předpovědi počasí z více než 4 000 letišť (zprávy METAR a TAF).

Červené a žluté tečky na mapě představují dostupné meteorologické stanice.

Když kurzor umístíte na tečku, zobrazí se název stanice.

Pak kliknutím zobrazíte stav a předpověď počasí.

Chcete-li změnit mapu, kliknutím na zelené tlačítko se znaménkem +mapu přiblížíte, kliknutím na zelené tlačítko se znaménkem – mapu oddálíte a kliknutím na zelené šipky přejdete na sousední mapy.


METAR-TAF: